sensor_id;sensor_type;location;lat;lon;timestamp;pressure;altitude;pressure_sealevel;temperature;humidity
19672;BME280;9983;51.114;13.788;2023-08-24T00:02:56;99687.97;;;17.93;100.00
19672;BME280;9983;51.114;13.788;2023-08-24T00:07:56;99691.50;;;18.32;100.00
19672;BME280;9983;51.114;13.788;2023-08-24T00:12:56;99691.91;;;17.97;100.00
19672;BME280;9983;51.114;13.788;2023-08-24T00:17:57;99693.38;;;17.93;100.00
19672;BME280;9983;51.114;13.788;2023-08-24T00:22:57;99691.66;;;18.05;100.00
19672;BME280;9983;51.114;13.788;2023-08-24T00:27:58;99690.88;;;17.98;100.00
19672;BME280;9983;51.114;13.788;2023-08-24T00:32:58;99686.88;;;17.63;100.00
19672;BME280;9983;51.114;13.788;2023-08-24T00:37:58;99675.16;;;17.69;100.00
19672;BME280;9983;51.114;13.788;2023-08-24T00:43:00;99673.22;;;17.31;100.00
19672;BME280;9983;51.114;13.788;2023-08-24T00:48:01;99686.28;;;17.92;100.00
19672;BME280;9983;51.114;13.788;2023-08-24T00:53:01;99683.81;;;17.91;100.00
19672;BME280;9983;51.114;13.788;2023-08-24T00:58:02;99685.97;;;17.82;100.00
19672;BME280;9983;51.114;13.788;2023-08-24T01:03:03;99685.25;;;17.49;100.00
19672;BME280;9983;51.114;13.788;2023-08-24T01:08:04;99683.41;;;17.36;100.00
19672;BME280;9983;51.114;13.788;2023-08-24T01:13:09;99684.38;;;17.55;100.00
19672;BME280;9983;51.114;13.788;2023-08-24T01:18:12;99686.16;;;17.16;100.00
19672;BME280;9983;51.114;13.788;2023-08-24T01:28:25;99667.72;;;17.44;100.00
19672;BME280;9983;51.114;13.788;2023-08-24T01:33:26;99670.09;;;17.79;100.00
19672;BME280;9983;51.114;13.788;2023-08-24T01:38:26;99674.78;;;17.65;100.00
19672;BME280;9983;51.114;13.788;2023-08-24T01:43:30;99659.97;;;16.90;100.00
19672;BME280;9983;51.114;13.788;2023-08-24T01:48:34;99662.41;;;17.18;100.00
19672;BME280;9983;51.114;13.788;2023-08-24T01:53:36;99656.41;;;17.61;100.00
19672;BME280;9983;51.114;13.788;2023-08-24T01:58:39;99657.84;;;17.12;100.00
19672;BME280;9983;51.114;13.788;2023-08-24T02:03:39;99660.78;;;17.04;100.00
19672;BME280;9983;51.114;13.788;2023-08-24T02:08:40;99665.81;;;16.74;100.00
19672;BME280;9983;51.114;13.788;2023-08-24T02:13:40;99667.28;;;16.77;100.00
19672;BME280;9983;51.114;13.788;2023-08-24T02:18:40;99659.97;;;16.57;100.00
19672;BME280;9983;51.114;13.788;2023-08-24T02:23:40;99649.97;;;16.51;100.00
19672;BME280;9983;51.114;13.788;2023-08-24T02:28:41;99645.25;;;17.37;100.00
19672;BME280;9983;51.114;13.788;2023-08-24T02:33:41;99663.34;;;16.73;100.00
19672;BME280;9983;51.114;13.788;2023-08-24T02:38:42;99652.84;;;17.02;100.00
19672;BME280;9983;51.114;13.788;2023-08-24T02:43:42;99647.50;;;16.56;100.00
19672;BME280;9983;51.114;13.788;2023-08-24T02:48:43;99646.63;;;16.49;100.00
19672;BME280;9983;51.114;13.788;2023-08-24T02:53:43;99650.41;;;16.48;100.00
19672;BME280;9983;51.114;13.788;2023-08-24T02:58:43;99658.28;;;16.17;100.00
19672;BME280;9983;51.114;13.788;2023-08-24T03:03:43;99647.31;;;16.64;100.00
19672;BME280;9983;51.114;13.788;2023-08-24T03:08:44;99647.06;;;16.59;100.00
19672;BME280;9983;51.114;13.788;2023-08-24T03:13:44;99645.78;;;16.03;100.00
19672;BME280;9983;51.114;13.788;2023-08-24T03:18:44;99652.06;;;16.36;100.00
19672;BME280;9983;51.114;13.788;2023-08-24T03:23:45;99641.25;;;16.62;100.00
19672;BME280;9983;51.114;13.788;2023-08-24T03:28:45;99648.44;;;15.76;100.00
19672;BME280;9983;51.114;13.788;2023-08-24T03:33:46;99639.13;;;15.99;100.00
19672;BME280;9983;51.114;13.788;2023-08-24T03:38:46;99642.88;;;16.11;100.00
19672;BME280;9983;51.114;13.788;2023-08-24T03:43:47;99642.88;;;16.04;100.00
19672;BME280;9983;51.114;13.788;2023-08-24T03:48:47;99638.72;;;16.41;100.00
19672;BME280;9983;51.114;13.788;2023-08-24T03:53:47;99649.53;;;15.88;100.00
19672;BME280;9983;51.114;13.788;2023-08-24T03:58:47;99651.97;;;15.83;100.00
19672;BME280;9983;51.114;13.788;2023-08-24T04:03:49;99648.81;;;15.60;100.00
19672;BME280;9983;51.114;13.788;2023-08-24T04:08:49;99640.75;;;15.80;100.00
19672;BME280;9983;51.114;13.788;2023-08-24T04:13:49;99647.88;;;16.01;100.00
19672;BME280;9983;51.114;13.788;2023-08-24T04:18:49;99644.06;;;15.75;100.00
19672;BME280;9983;51.114;13.788;2023-08-24T04:23:50;99644.88;;;15.69;100.00
19672;BME280;9983;51.114;13.788;2023-08-24T04:28:50;99643.66;;;15.72;100.00
19672;BME280;9983;51.114;13.788;2023-08-24T04:33:50;99641.66;;;16.07;100.00
19672;BME280;9983;51.114;13.788;2023-08-24T04:38:51;99634.16;;;16.22;100.00
19672;BME280;9983;51.114;13.788;2023-08-24T04:43:51;99643.88;;;15.83;100.00
19672;BME280;9983;51.114;13.788;2023-08-24T04:48:51;99642.00;;;15.77;100.00
19672;BME280;9983;51.114;13.788;2023-08-24T04:53:51;99649.13;;;16.18;100.00
19672;BME280;9983;51.114;13.788;2023-08-24T04:58:55;99650.81;;;16.06;100.00
19672;BME280;9983;51.114;13.788;2023-08-24T05:04:00;99649.91;;;15.92;100.00
19672;BME280;9983;51.114;13.788;2023-08-24T05:09:01;99649.56;;;16.48;100.00
19672;BME280;9983;51.114;13.788;2023-08-24T05:14:01;99663.50;;;16.25;100.00
19672;BME280;9983;51.114;13.788;2023-08-24T05:19:02;99648.31;;;16.77;100.00
19672;BME280;9983;51.114;13.788;2023-08-24T05:24:03;99659.06;;;17.16;100.00
19672;BME280;9983;51.114;13.788;2023-08-24T05:29:04;99645.06;;;17.26;100.00
19672;BME280;9983;51.114;13.788;2023-08-24T05:34:04;99653.16;;;17.32;100.00
19672;BME280;9983;51.114;13.788;2023-08-24T05:39:05;99649.28;;;17.73;100.00
19672;BME280;9983;51.114;13.788;2023-08-24T05:44:06;99644.50;;;18.06;100.00
19672;BME280;9983;51.114;13.788;2023-08-24T05:49:06;99643.19;;;18.15;100.00
19672;BME280;9983;51.114;13.788;2023-08-24T05:54:07;99636.31;;;18.38;100.00
19672;BME280;9983;51.114;13.788;2023-08-24T05:59:07;99641.31;;;18.41;100.00
19672;BME280;9983;51.114;13.788;2023-08-24T06:04:08;99647.06;;;18.51;100.00
19672;BME280;9983;51.114;13.788;2023-08-24T06:09:09;99651.91;;;18.17;100.00
19672;BME280;9983;51.114;13.788;2023-08-24T06:14:10;99634.66;;;18.86;100.00
19672;BME280;9983;51.114;13.788;2023-08-24T06:19:10;99641.47;;;19.14;100.00
19672;BME280;9983;51.114;13.788;2023-08-24T06:24:11;99632.25;;;19.51;100.00
19672;BME280;9983;51.114;13.788;2023-08-24T06:29:11;99634.47;;;19.73;100.00
19672;BME280;9983;51.114;13.788;2023-08-24T06:34:12;99624.34;;;19.80;100.00
19672;BME280;9983;51.114;13.788;2023-08-24T06:39:12;99613.78;;;20.13;100.00
19672;BME280;9983;51.114;13.788;2023-08-24T06:44:12;99631.78;;;20.14;100.00
19672;BME280;9983;51.114;13.788;2023-08-24T06:49:13;99625.25;;;20.57;100.00
19672;BME280;9983;51.114;13.788;2023-08-24T06:54:14;99614.81;;;20.77;100.00
19672;BME280;9983;51.114;13.788;2023-08-24T06:59:15;99627.63;;;20.88;100.00
19672;BME280;9983;51.114;13.788;2023-08-24T07:04:16;99626.66;;;21.17;100.00
19672;BME280;9983;51.114;13.788;2023-08-24T07:09:18;99634.88;;;21.46;100.00
19672;BME280;9983;51.114;13.788;2023-08-24T07:14:19;99634.28;;;21.44;100.00
19672;BME280;9983;51.114;13.788;2023-08-24T07:19:19;99626.22;;;21.77;100.00
19672;BME280;9983;51.114;13.788;2023-08-24T07:24:21;99628.88;;;21.72;100.00
19672;BME280;9983;51.114;13.788;2023-08-24T07:29:26;99620.50;;;21.90;97.81
19672;BME280;9983;51.114;13.788;2023-08-24T07:34:26;99620.06;;;22.60;94.61
19672;BME280;9983;51.114;13.788;2023-08-24T07:39:28;99620.22;;;22.70;94.71
19672;BME280;9983;51.114;13.788;2023-08-24T07:44:29;99610.31;;;23.03;91.40
19672;BME280;9983;51.114;13.788;2023-08-24T07:49:29;99625.41;;;23.27;90.85
19672;BME280;9983;51.114;13.788;2023-08-24T07:54:29;99623.59;;;23.55;86.86
19672;BME280;9983;51.114;13.788;2023-08-24T07:59:30;99623.16;;;23.63;83.91
19672;BME280;9983;51.114;13.788;2023-08-24T08:04:30;99622.66;;;23.66;80.88
19672;BME280;9983;51.114;13.788;2023-08-24T08:09:31;99610.47;;;24.05;78.41
19672;BME280;9983;51.114;13.788;2023-08-24T08:14:31;99612.63;;;24.30;77.67
19672;BME280;9983;51.114;13.788;2023-08-24T08:19:32;99620.31;;;24.65;74.81
19672;BME280;9983;51.114;13.788;2023-08-24T08:24:32;99619.75;;;24.63;71.23
19672;BME280;9983;51.114;13.788;2023-08-24T08:29:33;99623.31;;;25.01;72.56
19672;BME280;9983;51.114;13.788;2023-08-24T08:34:33;99620.41;;;25.22;75.07
19672;BME280;9983;51.114;13.788;2023-08-24T08:39:34;99613.56;;;25.25;82.51
19672;BME280;9983;51.114;13.788;2023-08-24T08:44:34;99618.03;;;25.41;73.35
19672;BME280;9983;51.114;13.788;2023-08-24T08:49:35;99608.59;;;25.22;64.30
19672;BME280;9983;51.114;13.788;2023-08-24T08:54:36;99615.88;;;25.53;62.77
19672;BME280;9983;51.114;13.788;2023-08-24T08:59:36;99596.75;;;25.79;63.86
19672;BME280;9983;51.114;13.788;2023-08-24T09:04:37;99590.06;;;25.54;60.59
19672;BME280;9983;51.114;13.788;2023-08-24T09:09:39;99595.69;;;25.85;55.68
19672;BME280;9983;51.114;13.788;2023-08-24T09:14:39;99588.06;;;26.27;55.90
19672;BME280;9983;51.114;13.788;2023-08-24T09:19:41;99578.16;;;26.31;58.98
19672;BME280;9983;51.114;13.788;2023-08-24T09:24:41;99561.91;;;26.25;56.94
19672;BME280;9983;51.114;13.788;2023-08-24T09:29:42;99563.84;;;26.60;56.57
19672;BME280;9983;51.114;13.788;2023-08-24T09:34:42;99556.16;;;26.52;54.00
19672;BME280;9983;51.114;13.788;2023-08-24T09:39:44;99555.56;;;26.75;51.23
19672;BME280;9983;51.114;13.788;2023-08-24T09:44:44;99537.31;;;27.04;49.19
19672;BME280;9983;51.114;13.788;2023-08-24T09:49:46;99530.56;;;27.41;49.97
19672;BME280;9983;51.114;13.788;2023-08-24T09:54:47;99522.66;;;27.73;49.84
19672;BME280;9983;51.114;13.788;2023-08-24T09:59:49;99524.50;;;28.27;48.90
19672;BME280;9983;51.114;13.788;2023-08-24T10:04:52;99496.66;;;28.52;46.18
19672;BME280;9983;51.114;13.788;2023-08-24T10:10:02;99502.75;;;28.73;42.77
19672;BME280;9983;51.114;13.788;2023-08-24T10:15:04;99502.78;;;28.97;43.17
19672;BME280;9983;51.114;13.788;2023-08-24T10:20:07;99515.72;;;29.01;40.82
19672;BME280;9983;51.114;13.788;2023-08-24T10:25:09;99510.06;;;29.12;42.69
19672;BME280;9983;51.114;13.788;2023-08-24T10:30:11;99508.72;;;29.52;41.04
19672;BME280;9983;51.114;13.788;2023-08-24T10:35:13;99508.72;;;29.52;45.01
19672;BME280;9983;51.114;13.788;2023-08-24T10:40:31;99503.38;;;29.93;43.91
19672;BME280;9983;51.114;13.788;2023-08-24T10:45:57;99490.75;;;29.30;41.88
19672;BME280;9983;51.114;13.788;2023-08-24T10:56:17;99491.16;;;29.00;40.64
19672;BME280;9983;51.114;13.788;2023-08-24T11:01:19;99480.56;;;29.50;38.57
19672;BME280;9983;51.114;13.788;2023-08-24T11:06:23;99480.88;;;29.24;38.86
19672;BME280;9983;51.114;13.788;2023-08-24T11:11:24;99476.06;;;29.72;39.26
19672;BME280;9983;51.114;13.788;2023-08-24T11:16:46;99468.63;;;30.05;38.83
19672;BME280;9983;51.114;13.788;2023-08-24T11:21:47;99453.94;;;29.72;40.56
19672;BME280;9983;51.114;13.788;2023-08-24T11:26:48;99444.13;;;29.99;39.50
19672;BME280;9983;51.114;13.788;2023-08-24T11:31:51;99437.97;;;30.34;42.81
19672;BME280;9983;51.114;13.788;2023-08-24T11:36:51;99427.56;;;31.22;36.65
19672;BME280;9983;51.114;13.788;2023-08-24T11:42:03;99421.34;;;31.52;38.19
19672;BME280;9983;51.114;13.788;2023-08-24T11:47:04;99399.91;;;33.16;36.15
19672;BME280;9983;51.114;13.788;2023-08-24T11:52:04;99379.78;;;32.76;35.66
19672;BME280;9983;51.114;13.788;2023-08-24T11:57:08;99361.38;;;33.40;36.79
19672;BME280;9983;51.114;13.788;2023-08-24T12:02:09;99362.47;;;33.65;35.92
19672;BME280;9983;51.114;13.788;2023-08-24T12:07:11;99337.97;;;33.50;34.49
19672;BME280;9983;51.114;13.788;2023-08-24T12:12:16;99322.31;;;32.85;39.34
19672;BME280;9983;51.114;13.788;2023-08-24T12:17:17;99318.22;;;32.26;38.13
19672;BME280;9983;51.114;13.788;2023-08-24T12:22:19;99317.41;;;31.86;39.45
19672;BME280;9983;51.114;13.788;2023-08-24T12:27:23;99322.84;;;32.30;40.59
19672;BME280;9983;51.114;13.788;2023-08-24T12:32:24;99352.19;;;32.71;39.18
19672;BME280;9983;51.114;13.788;2023-08-24T12:37:25;99354.34;;;33.43;37.63
19672;BME280;9983;51.114;13.788;2023-08-24T12:42:25;99366.75;;;33.54;34.17
19672;BME280;9983;51.114;13.788;2023-08-24T12:47:26;99360.56;;;33.05;35.06
19672;BME280;9983;51.114;13.788;2023-08-24T12:52:26;99333.72;;;32.75;39.02
19672;BME280;9983;51.114;13.788;2023-08-24T12:57:26;99323.47;;;32.27;37.04
19672;BME280;9983;51.114;13.788;2023-08-24T13:02:26;99325.16;;;32.15;41.20
19672;BME280;9983;51.114;13.788;2023-08-24T13:07:27;99334.22;;;32.86;40.21
19672;BME280;9983;51.114;13.788;2023-08-24T13:12:27;99325.94;;;33.29;40.23
19672;BME280;9983;51.114;13.788;2023-08-24T13:17:29;99303.31;;;34.11;36.33
19672;BME280;9983;51.114;13.788;2023-08-24T13:22:30;99297.28;;;35.30;35.04
19672;BME280;9983;51.114;13.788;2023-08-24T13:27:30;99288.25;;;34.92;33.65
19672;BME280;9983;51.114;13.788;2023-08-24T13:32:30;99269.09;;;36.01;31.83
19672;BME280;9983;51.114;13.788;2023-08-24T13:37:31;99262.66;;;36.49;30.81
19672;BME280;9983;51.114;13.788;2023-08-24T13:42:31;99261.81;;;38.16;29.09
19672;BME280;9983;51.114;13.788;2023-08-24T13:47:32;99237.38;;;38.87;27.95
19672;BME280;9983;51.114;13.788;2023-08-24T13:52:32;99238.22;;;39.06;27.41
19672;BME280;9983;51.114;13.788;2023-08-24T13:57:32;99236.59;;;38.16;28.70
19672;BME280;9983;51.114;13.788;2023-08-24T14:02:32;99244.13;;;40.12;26.61
19672;BME280;9983;51.114;13.788;2023-08-24T14:07:33;99228.88;;;40.36;26.30
19672;BME280;9983;51.114;13.788;2023-08-24T14:12:33;99234.25;;;39.07;27.22
19672;BME280;9983;51.114;13.788;2023-08-24T14:17:33;99223.31;;;40.99;25.18
19672;BME280;9983;51.114;13.788;2023-08-24T14:22:33;99225.38;;;40.42;25.29
19672;BME280;9983;51.114;13.788;2023-08-24T14:27:34;99210.31;;;40.58;25.35
19672;BME280;9983;51.114;13.788;2023-08-24T14:32:34;99219.78;;;41.83;24.41
19672;BME280;9983;51.114;13.788;2023-08-24T14:37:34;99211.06;;;40.54;26.12
19672;BME280;9983;51.114;13.788;2023-08-24T14:42:34;99196.69;;;40.60;26.68
19672;BME280;9983;51.114;13.788;2023-08-24T14:47:35;99185.94;;;40.35;26.84
19672;BME280;9983;51.114;13.788;2023-08-24T14:52:35;99183.78;;;39.99;27.44
19672;BME280;9983;51.114;13.788;2023-08-24T14:57:35;99182.63;;;40.89;27.06
19672;BME280;9983;51.114;13.788;2023-08-24T15:02:36;99183.69;;;41.11;26.85
19672;BME280;9983;51.114;13.788;2023-08-24T15:07:37;99178.69;;;40.64;27.63
19672;BME280;9983;51.114;13.788;2023-08-24T15:12:37;99182.19;;;39.52;27.82
19672;BME280;9983;51.114;13.788;2023-08-24T15:17:37;99182.13;;;40.50;27.25
19672;BME280;9983;51.114;13.788;2023-08-24T15:22:38;99182.03;;;38.99;29.42
19672;BME280;9983;51.114;13.788;2023-08-24T15:27:38;99178.06;;;39.92;26.72
19672;BME280;9983;51.114;13.788;2023-08-24T15:32:38;99175.66;;;40.46;27.70
19672;BME280;9983;51.114;13.788;2023-08-24T15:37:38;99173.94;;;39.86;28.03
19672;BME280;9983;51.114;13.788;2023-08-24T15:42:40;99178.03;;;37.60;29.35
19672;BME280;9983;51.114;13.788;2023-08-24T15:47:40;99161.34;;;39.07;28.50
19672;BME280;9983;51.114;13.788;2023-08-24T15:52:40;99144.69;;;38.76;30.37
19672;BME280;9983;51.114;13.788;2023-08-24T15:57:41;99148.94;;;36.34;36.24
19672;BME280;9983;51.114;13.788;2023-08-24T16:02:41;99136.25;;;37.36;34.58
19672;BME280;9983;51.114;13.788;2023-08-24T16:07:41;99128.44;;;36.42;36.73
19672;BME280;9983;51.114;13.788;2023-08-24T16:12:42;99120.59;;;37.04;35.30
19672;BME280;9983;51.114;13.788;2023-08-24T16:17:42;99109.84;;;36.34;34.15
19672;BME280;9983;51.114;13.788;2023-08-24T16:22:42;99110.31;;;35.23;35.19
19672;BME280;9983;51.114;13.788;2023-08-24T16:27:43;99113.47;;;35.01;35.33
19672;BME280;9983;51.114;13.788;2023-08-24T16:32:43;99104.91;;;35.06;40.11
19672;BME280;9983;51.114;13.788;2023-08-24T16:37:44;99111.25;;;33.78;41.62
19672;BME280;9983;51.114;13.788;2023-08-24T16:42:44;99110.94;;;33.42;43.19
19672;BME280;9983;51.114;13.788;2023-08-24T16:47:44;99110.34;;;33.19;43.75
19672;BME280;9983;51.114;13.788;2023-08-24T16:52:46;99109.53;;;32.20;47.13
19672;BME280;9983;51.114;13.788;2023-08-24T16:57:48;99102.56;;;31.18;56.93
19672;BME280;9983;51.114;13.788;2023-08-24T17:02:49;99099.03;;;31.26;58.31
19672;BME280;9983;51.114;13.788;2023-08-24T17:08:06;99102.63;;;30.73;59.93
19672;BME280;9983;51.114;13.788;2023-08-24T17:13:07;99095.22;;;30.38;57.63
19672;BME280;9983;51.114;13.788;2023-08-24T17:18:07;99077.09;;;30.09;62.39
19672;BME280;9983;51.114;13.788;2023-08-24T17:23:07;99087.91;;;30.42;57.64
19672;BME280;9983;51.114;13.788;2023-08-24T17:28:08;99074.50;;;29.77;60.86
19672;BME280;9983;51.114;13.788;2023-08-24T17:33:08;99072.88;;;29.08;66.12
19672;BME280;9983;51.114;13.788;2023-08-24T17:38:11;99067.59;;;29.38;65.05
19672;BME280;9983;51.114;13.788;2023-08-24T17:43:11;99066.66;;;29.02;67.29
19672;BME280;9983;51.114;13.788;2023-08-24T17:48:11;99062.03;;;28.84;69.07
19672;BME280;9983;51.114;13.788;2023-08-24T17:53:12;99062.28;;;28.68;68.45
19672;BME280;9983;51.114;13.788;2023-08-24T17:58:12;99067.81;;;27.99;71.46
19672;BME280;9983;51.114;13.788;2023-08-24T18:03:13;99073.56;;;28.21;72.51
19672;BME280;9983;51.114;13.788;2023-08-24T18:08:13;99080.25;;;27.59;75.90
19672;BME280;9983;51.114;13.788;2023-08-24T18:13:14;99079.59;;;28.23;67.96
19672;BME280;9983;51.114;13.788;2023-08-24T18:18:14;99077.81;;;27.94;68.36
19672;BME280;9983;51.114;13.788;2023-08-24T18:23:15;99096.03;;;27.48;70.88
19672;BME280;9983;51.114;13.788;2023-08-24T18:28:15;99093.47;;;27.33;71.07
19672;BME280;9983;51.114;13.788;2023-08-24T18:33:16;99091.38;;;27.25;75.48
19672;BME280;9983;51.114;13.788;2023-08-24T18:38:16;99101.91;;;27.17;76.47
19672;BME280;9983;51.114;13.788;2023-08-24T18:43:16;99096.63;;;26.97;77.11
19672;BME280;9983;51.114;13.788;2023-08-24T18:48:16;99071.75;;;26.50;80.67
19672;BME280;9983;51.114;13.788;2023-08-24T18:53:17;99043.00;;;26.66;77.50
19672;BME280;9983;51.114;13.788;2023-08-24T18:58:17;99045.66;;;26.76;75.56
19672;BME280;9983;51.114;13.788;2023-08-24T19:03:17;99044.69;;;26.62;75.44
19672;BME280;9983;51.114;13.788;2023-08-24T19:08:18;99036.50;;;26.57;75.65
19672;BME280;9983;51.114;13.788;2023-08-24T19:13:18;99028.72;;;26.01;79.99
19672;BME280;9983;51.114;13.788;2023-08-24T19:18:18;99019.84;;;25.75;80.79
19672;BME280;9983;51.114;13.788;2023-08-24T19:23:19;98998.28;;;25.48;84.83
19672;BME280;9983;51.114;13.788;2023-08-24T19:28:19;98998.03;;;25.94;77.92
19672;BME280;9983;51.114;13.788;2023-08-24T19:33:20;98984.59;;;25.87;77.58
19672;BME280;9983;51.114;13.788;2023-08-24T19:38:21;98975.91;;;26.09;75.16
19672;BME280;9983;51.114;13.788;2023-08-24T19:43:21;98962.72;;;26.11;72.28
19672;BME280;9983;51.114;13.788;2023-08-24T19:48:22;98945.16;;;26.07;72.29
19672;BME280;9983;51.114;13.788;2023-08-24T19:53:22;98941.47;;;25.88;75.31
19672;BME280;9983;51.114;13.788;2023-08-24T19:58:22;98936.00;;;25.88;74.90
19672;BME280;9983;51.114;13.788;2023-08-24T20:03:22;98920.72;;;25.77;72.77
19672;BME280;9983;51.114;13.788;2023-08-24T20:08:24;98922.94;;;25.69;73.77
19672;BME280;9983;51.114;13.788;2023-08-24T20:13:27;98907.00;;;25.77;73.72
19672;BME280;9983;51.114;13.788;2023-08-24T20:18:27;98914.56;;;25.90;72.97
19672;BME280;9983;51.114;13.788;2023-08-24T20:23:29;98901.50;;;25.77;73.85
19672;BME280;9983;51.114;13.788;2023-08-24T20:28:31;98894.94;;;25.73;74.57
19672;BME280;9983;51.114;13.788;2023-08-24T20:33:32;98892.28;;;25.62;75.74
19672;BME280;9983;51.114;13.788;2023-08-24T20:38:32;98890.13;;;25.59;74.82
19672;BME280;9983;51.114;13.788;2023-08-24T20:43:32;98880.66;;;25.70;74.25
19672;BME280;9983;51.114;13.788;2023-08-24T20:48:33;98871.56;;;25.41;76.05
19672;BME280;9983;51.114;13.788;2023-08-24T20:53:33;98887.53;;;25.34;72.00
19672;BME280;9983;51.114;13.788;2023-08-24T20:58:34;98883.34;;;25.42;72.68
19672;BME280;9983;51.114;13.788;2023-08-24T21:03:34;98892.59;;;25.17;73.04
19672;BME280;9983;51.114;13.788;2023-08-24T21:08:35;98889.72;;;25.32;73.79
19672;BME280;9983;51.114;13.788;2023-08-24T21:13:35;98895.28;;;25.22;74.23
19672;BME280;9983;51.114;13.788;2023-08-24T21:18:35;98893.28;;;24.83;79.01
19672;BME280;9983;51.114;13.788;2023-08-24T21:23:36;98894.56;;;25.45;73.64
19672;BME280;9983;51.114;13.788;2023-08-24T21:28:36;98896.38;;;25.26;76.73
19672;BME280;9983;51.114;13.788;2023-08-24T21:33:36;98894.72;;;25.25;78.55
19672;BME280;9983;51.114;13.788;2023-08-24T21:38:37;98905.31;;;24.87;80.84
19672;BME280;9983;51.114;13.788;2023-08-24T21:43:37;98897.63;;;25.00;80.88
19672;BME280;9983;51.114;13.788;2023-08-24T21:48:37;98885.84;;;24.94;84.49
19672;BME280;9983;51.114;13.788;2023-08-24T21:53:38;98884.09;;;24.54;89.47
19672;BME280;9983;51.114;13.788;2023-08-24T21:58:38;98872.53;;;24.62;90.61
19672;BME280;9983;51.114;13.788;2023-08-24T22:03:39;98868.34;;;24.85;88.81
19672;BME280;9983;51.114;13.788;2023-08-24T22:08:39;98859.47;;;24.49;89.87
19672;BME280;9983;51.114;13.788;2023-08-24T22:13:39;98859.81;;;24.86;84.59
19672;BME280;9983;51.114;13.788;2023-08-24T22:18:41;98853.78;;;24.89;82.96
19672;BME280;9983;51.114;13.788;2023-08-24T22:23:41;98857.19;;;24.61;85.80
19672;BME280;9983;51.114;13.788;2023-08-24T22:28:41;98857.59;;;24.88;83.67
19672;BME280;9983;51.114;13.788;2023-08-24T22:33:42;98855.41;;;24.90;83.09
19672;BME280;9983;51.114;13.788;2023-08-24T22:38:42;98855.50;;;24.70;86.00
19672;BME280;9983;51.114;13.788;2023-08-24T22:43:43;98863.63;;;24.95;84.20
19672;BME280;9983;51.114;13.788;2023-08-24T22:48:43;98877.44;;;24.75;87.73
19672;BME280;9983;51.114;13.788;2023-08-24T22:53:43;98881.81;;;24.76;88.81
19672;BME280;9983;51.114;13.788;2023-08-24T22:58:44;98899.88;;;24.77;88.52
19672;BME280;9983;51.114;13.788;2023-08-24T23:03:45;98892.59;;;24.57;87.88
19672;BME280;9983;51.114;13.788;2023-08-24T23:08:46;98902.75;;;24.52;87.49
19672;BME280;9983;51.114;13.788;2023-08-24T23:13:47;98880.72;;;24.72;88.69
19672;BME280;9983;51.114;13.788;2023-08-24T23:18:47;98843.50;;;24.61;91.01
19672;BME280;9983;51.114;13.788;2023-08-24T23:23:47;98776.53;;;24.77;90.02
19672;BME280;9983;51.114;13.788;2023-08-24T23:28:48;98798.47;;;24.18;86.87
19672;BME280;9983;51.114;13.788;2023-08-24T23:33:48;98802.22;;;24.37;84.19
19672;BME280;9983;51.114;13.788;2023-08-24T23:38:49;98798.50;;;24.72;80.41
19672;BME280;9983;51.114;13.788;2023-08-24T23:43:49;98807.81;;;24.71;77.92
19672;BME280;9983;51.114;13.788;2023-08-24T23:48:49;98804.47;;;24.84;75.65
19672;BME280;9983;51.114;13.788;2023-08-24T23:53:49;98776.22;;;25.23;70.79
19672;BME280;9983;51.114;13.788;2023-08-24T23:58:50;98788.34;;;25.51;68.00
